Time;durP1;ratioP1;P1;durP2;ratioP2;P2;SDS_P1;SDS_P2;PMS_P1;PMS_P2;Temp;Humidity;BMP_temperature;BMP_pressure;BME280_temperature;BME280_humidity;BME280_pressure;Samples;Min_cycle;Max_cycle;Signal;HPM_P1;HPM_P2
2022/08/09 00:00:29;;;;;;;4.85;3.80;;;;;;;19.79;80.71;100945.41;1702477;83;21066;-66
2022/08/09 00:02:58;;;;;;;5.10;3.62;;;;;;;19.79;80.65;100942.63;1705668;83;21038;-64
2022/08/09 00:05:28;;;;;;;5.20;3.50;;;;;;;19.79;80.65;100939.00;1755292;81;21029;-66
2022/08/09 00:08:00;;;;;;;5.25;3.22;;;;;;;19.75;80.76;100940.03;1756399;81;20966;-64
2022/08/09 00:10:30;;;;;;;7.17;4.10;;;;;;;19.73;80.92;100939.44;1745039;81;21069;-64
2022/08/09 00:13:01;;;;;;;7.03;3.33;;;;;;;19.72;80.98;100934.12;1746017;81;20994;-64
2022/08/09 00:15:33;;;;;;;6.75;3.80;;;;;;;19.69;81.07;100932.67;1749897;81;21449;-64
2022/08/09 00:18:05;;;;;;;4.42;3.50;;;;;;;19.68;81.16;100924.58;1744265;81;21176;-65
2022/08/09 00:20:36;;;;;;;5.55;3.72;;;;;;;19.67;81.18;100922.34;1744696;81;21051;-65
2022/08/09 00:23:08;;;;;;;4.42;3.47;;;;;;;19.66;81.29;100930.38;1747114;81;21065;-66
2022/08/09 00:25:40;;;;;;;5.10;3.20;;;;;;;19.65;81.19;100926.45;1751881;81;21017;-65
2022/08/09 00:28:12;;;;;;;4.67;3.40;;;;;;;19.65;81.42;100926.45;1750451;81;21001;-64
2022/08/09 00:30:42;;;;;;;3.90;3.50;;;;;;;19.65;81.48;100927.30;1752965;81;21069;-64
2022/08/09 00:33:14;;;;;;;6.22;3.60;;;;;;;19.67;81.44;100922.89;1744989;81;21002;-64
2022/08/09 00:35:44;;;;;;;4.95;3.35;;;;;;;19.68;81.37;100929.59;1746088;81;21026;-66
2022/08/09 00:38:14;;;;;;;4.30;3.22;;;;;;;19.71;81.18;100926.87;1760491;81;20989;-64
2022/08/09 00:40:46;;;;;;;3.77;3.33;;;;;;;19.71;81.08;100935.21;1760739;81;21037;-64
2022/08/09 00:43:17;;;;;;;5.72;3.75;;;;;;;19.72;81.08;100929.95;1736735;81;21050;-65
2022/08/09 00:45:48;;;;;;;4.50;3.00;;;;;;;19.73;80.98;100928.31;1751508;81;21100;-65
2022/08/09 00:48:19;;;;;;;4.47;3.65;;;;;;;19.73;80.95;100935.27;1749772;81;21075;-64
2022/08/09 00:50:48;;;;;;;5.40;3.27;;;;;;;19.71;80.81;100932.43;1752008;81;20993;-64
2022/08/09 00:53:20;;;;;;;4.03;3.33;;;;;;;19.71;80.80;100927.71;1748922;81;21112;-64
2022/08/09 00:55:51;;;;;;;4.53;3.10;;;;;;;19.70;80.73;100930.73;1740668;81;20950;-65
2022/08/09 00:58:22;;;;;;;5.47;3.08;;;;;;;19.70;80.68;100931.58;1760452;81;21522;-64
2022/08/09 01:00:54;;;;;;;4.05;3.02;;;;;;;19.69;80.61;100934.06;1754574;81;21010;-66
2022/08/09 01:03:42;;;;;;;3.95;3.08;;;;;;;19.67;80.66;100929.30;1749606;81;21057;-64
2022/08/09 01:06:34;;;;;;;3.27;2.98;;;;;;;19.67;80.64;100925.13;1749082;81;21048;-64
2022/08/09 01:09:31;;;;;;;4.33;3.20;;;;;;;19.67;80.60;100927.06;1749952;81;21000;-64
2022/08/09 01:12:13;;;;;;;3.72;2.77;;;;;;;19.66;80.62;100932.32;1749239;81;20994;-65
2022/08/09 01:15:03;;;;;;;3.17;2.80;;;;;;;19.67;80.48;100940.41;1749261;81;21457;-64
2022/08/09 01:17:43;;;;;;;3.67;3.02;;;;;;;19.68;80.42;100939.33;1747185;81;21444;-64
2022/08/09 01:20:23;;;;;;;4.05;2.98;;;;;;;19.69;80.39;100941.56;1742313;81;20962;-64
2022/08/09 01:23:11;;;;;;;3.52;3.10;;;;;;;19.68;80.37;100945.43;1745105;81;21014;-64
2022/08/09 01:26:20;;;;;;;4.97;3.00;;;;;;;19.66;80.33;100944.28;1747539;81;21021;-65
2022/08/09 01:28:52;;;;;;;3.80;2.85;;;;;;;19.64;80.25;100936.73;1745149;81;21021;-65
2022/08/09 01:31:24;;;;;;;2.80;2.50;;;;;;;19.65;80.25;100936.19;1747124;81;21041;-64
2022/08/09 01:33:58;;;;;;;2.58;2.37;;;;;;;19.66;80.22;100937.88;1755976;81;21085;-64
2022/08/09 01:36:27;;;;;;;4.28;2.65;;;;;;;19.69;80.10;100937.39;1754755;81;21470;-65
2022/08/09 01:38:57;;;;;;;4.20;2.60;;;;;;;19.64;79.78;100939.52;1755960;81;21393;-65
2022/08/09 01:41:35;;;;;;;3.55;2.37;;;;;;;19.63;79.61;100926.70;1744886;81;21065;-64
2022/08/09 01:44:04;;;;;;;2.60;2.40;;;;;;;19.62;79.29;100928.64;1737488;81;20981;-66
2022/08/09 01:46:42;;;;;;;3.55;2.27;;;;;;;19.63;79.06;100932.27;1739946;81;21077;-63
2022/08/09 01:49:15;;;;;;;3.50;2.20;;;;;;;19.62;78.76;100926.41;1747045;81;20982;-63
2022/08/09 01:52:02;;;;;;;2.22;2.02;;;;;;;19.62;78.73;100931.96;1764620;81;21016;-65
2022/08/09 01:54:41;;;;;;;2.60;2.40;;;;;;;19.61;78.43;100937.22;1740239;81;21066;-67
2022/08/09 01:57:18;;;;;;;3.83;2.35;;;;;;;19.59;78.45;100943.03;1727979;81;21405;-64
2022/08/09 01:59:50;;;;;;;;;;;;;;;19.59;78.15;100938.02;1751895;81;20998;-65
2022/08/09 02:02:26;;;;;;;3.25;2.10;;;;;;;19.58;77.90;100943.27;1735508;81;20193;-65
2022/08/09 02:05:02;;;;;;;2.77;2.30;;;;;;;19.54;77.93;100944.84;1745883;81;21080;-63
2022/08/09 02:07:36;;;;;;;2.92;2.15;;;;;;;19.50;77.91;100942.19;1737658;82;21034;-65
2022/08/09 02:10:13;;;;;;;3.90;2.40;;;;;;;19.48;77.96;100938.80;1738975;82;21466;-66
2022/08/09 02:12:44;;;;;;;2.72;2.33;;;;;;;19.47;78.03;100939.90;1734765;82;21041;-64
2022/08/09 02:15:16;;;;;;;2.95;2.33;;;;;;;19.48;78.01;100937.42;1744833;82;21077;-64
2022/08/09 02:17:49;;;;;;;4.42;2.37;;;;;;;19.48;77.88;100936.88;1741395;82;21106;-64
2022/08/09 02:20:22;;;;;;;4.37;2.50;;;;;;;19.46;77.88;100935.42;1723040;82;21485;-64
2022/08/09 02:23:03;;;;;;;3.30;2.12;;;;;;;19.42;77.79;100930.90;1734731;82;21042;-64
2022/08/09 02:25:39;;;;;;;3.90;2.35;;;;;;;19.37;77.83;100940.51;1738780;82;21005;-65
2022/08/09 02:28:28;;;;;;;2.80;2.22;;;;;;;19.33;77.97;100939.30;1747415;82;21031;-63
2022/08/09 02:31:09;;;;;;;2.58;2.20;;;;;;;19.30;78.01;100938.40;1741076;82;21030;-65
2022/08/09 02:33:41;;;;;;;2.10;1.90;;;;;;;19.30;78.19;100940.63;1731506;82;20962;-64
2022/08/09 02:36:31;;;;;;;4.22;2.10;;;;;;;19.30;78.13;100939.25;1744814;82;21009;-64
2022/08/09 02:39:04;;;;;;;2.83;2.15;;;;;;;19.28;78.28;100942.81;1740717;82;20982;-64
2022/08/09 02:41:43;;;;;;;3.65;2.25;;;;;;;19.25;78.45;100944.69;1741690;82;21057;-64
2022/08/09 02:44:21;;;;;;;2.92;1.92;;;;;;;19.24;78.44;100950.48;1741256;82;21085;-65
2022/08/09 02:46:54;;;;;;;3.92;2.10;;;;;;;19.23;78.51;100948.25;1748490;82;21451;-63
2022/08/09 02:49:24;;;;;;;5.08;2.02;;;;;;;19.24;78.49;100947.16;1736584;82;21512;-64
2022/08/09 02:51:58;;;;;;;3.15;2.30;;;;;;;19.24;78.50;100946.31;1675217;85;21576;-64
2022/08/09 02:54:29;;;;;;;2.72;2.27;;;;;;;19.24;78.58;100954.65;1635343;87;21133;-64
2022/08/09 02:57:01;;;;;;;4.45;2.30;;;;;;;19.25;78.73;100963.28;1681479;85;21102;-64
2022/08/09 02:59:32;;;;;;;4.03;2.35;;;;;;;19.22;78.83;100967.39;1625764;87;21089;-64
2022/08/09 03:02:07;;;;;;;4.37;2.30;;;;;;;19.19;78.81;100963.70;1632408;87;21128;-64
2022/08/09 03:04:39;;;;;;;2.58;2.08;;;;;;;19.17;78.98;100953.92;1656919;86;21189;-64
2022/08/09 03:07:09;;;;;;;3.27;2.02;;;;;;;19.18;79.06;100957.85;1686966;84;21073;-64
2022/08/09 03:09:42;;;;;;;3.77;2.35;;;;;;;19.20;79.03;100957.06;1635912;87;21054;-64
2022/08/09 03:12:13;;;;;;;3.55;2.15;;;;;;;19.20;78.99;100948.73;1645149;86;21085;-64
2022/08/09 03:14:43;;;;;;;2.40;2.20;;;;;;;19.21;79.08;100950.97;1629704;87;21447;-65
2022/08/09 03:17:14;;;;;;;5.40;2.27;;;;;;;19.21;79.12;100949.03;1684309;84;21046;-63
2022/08/09 03:19:46;;;;;;;4.55;2.17;;;;;;;19.21;79.08;100949.03;1687301;84;21085;-63
2022/08/09 03:22:18;;;;;;;3.58;2.05;;;;;;;19.18;79.12;100946.73;1698705;82;21026;-65
2022/08/09 03:24:50;;;;;;;2.60;2.00;;;;;;;19.17;79.23;100949.21;1731339;81;20962;-65
2022/08/09 03:27:21;;;;;;;2.67;2.02;;;;;;;19.19;79.26;100948.97;1739317;82;21034;-65
2022/08/09 03:29:51;;;;;;;1.90;1.70;;;;;;;19.21;79.25;100953.74;1744827;81;21410;-65
2022/08/09 03:32:24;;;;;;;3.25;1.67;;;;;;;19.23;79.04;100951.02;1748159;81;21030;-64
2022/08/09 03:34:55;;;;;;;2.02;1.70;;;;;;;19.26;78.95;100951.09;1739163;82;20978;-65
2022/08/09 03:37:27;;;;;;;3.58;1.80;;;;;;;19.26;78.75;100946.38;1742643;82;21029;-66
2022/08/09 03:39:58;;;;;;;2.98;2.00;;;;;;;19.25;78.75;100957.19;1727884;82;20982;-66
2022/08/09 03:42:29;;;;;;;3.85;2.00;;;;;;;19.22;78.81;100954.89;1746387;82;21029;-64
2022/08/09 03:44:59;;;;;;;2.98;1.80;;;;;;;19.21;78.81;100965.70;1726045;82;21041;-65
2022/08/09 03:47:28;;;;;;;3.10;1.62;;;;;;;19.22;78.84;100971.56;1737458;82;21461;-65
2022/08/09 03:50:00;;;;;;;2.85;1.70;;;;;;;19.25;78.71;100972.47;1738098;82;20994;-65
2022/08/09 03:52:31;;;;;;;4.17;1.85;;;;;;;19.26;78.66;100971.38;1741556;82;20994;-64
2022/08/09 03:55:03;;;;;;;2.77;2.10;;;;;;;19.27;78.59;100966.13;1744746;82;21116;-64
2022/08/09 03:57:34;;;;;;;3.62;1.70;;;;;;;19.28;78.49;100963.65;1744642;82;21049;-65
2022/08/09 04:00:06;;;;;;;2.08;1.72;;;;;;;19.30;78.41;100970.36;1692354;84;21102;-64
2022/08/09 04:02:41;;;;;;;2.52;1.70;;;;;;;19.33;78.34;100963.77;1687256;84;21482;-65
2022/08/09 04:05:13;;;;;;;3.45;1.80;;;;;;;19.36;78.17;100968.00;1663893;85;21054;-64
2022/08/09 04:07:46;;;;;;;5.95;2.42;;;;;;;19.38;78.05;100971.92;1652459;86;21035;-65
2022/08/09 04:10:21;;;;;;;3.25;1.90;;;;;;;19.37;77.97;100964.67;1664982;86;21035;-65
2022/08/09 04:12:52;;;;;;;4.15;2.20;;;;;;;19.38;77.75;100961.66;1682984;84;21033;-65
2022/08/09 04:15:23;;;;;;;2.17;1.75;;;;;;;19.39;77.67;100959.17;1665137;86;21067;-64
2022/08/09 04:17:54;;;;;;;3.30;1.60;;;;;;;19.41;77.64;100958.39;1679647;85;21054;-65
2022/08/09 04:20:26;;;;;;;2.65;1.42;;;;;;;19.43;77.18;100965.09;1691491;84;21100;-64
2022/08/09 04:22:57;;;;;;;3.87;1.87;;;;;;;19.43;76.77;100960.92;1682277;85;21037;-63
2022/08/09 04:25:28;;;;;;;6.72;2.40;;;;;;;19.43;76.52;100968.72;1656120;85;21082;-64
2022/08/09 04:27:57;;;;;;;3.60;1.80;;;;;;;19.42;76.22;100957.84;1665514;85;21140;-65
2022/08/09 04:30:28;;;;;;;2.60;1.55;;;;;;;19.43;76.10;100953.98;1664701;86;21046;-65
2022/08/09 04:33:01;;;;;;;3.40;1.65;;;;;;;19.42;75.98;100946.73;1665084;86;21066;-65
2022/08/09 04:35:30;;;;;;;4.10;1.85;;;;;;;19.45;75.73;100951.80;1685149;85;21033;-67
2022/08/09 04:38:02;;;;;;;3.58;1.70;;;;;;;19.47;75.51;100950.47;1656908;85;21477;-64
2022/08/09 04:41:32;;;;;;;2.55;1.90;;;;;;;19.48;75.31;100956.33;1665196;86;21129;-65
2022/08/09 04:43:15;;;;;;;2.00;1.62;;;;;;;19.49;75.07;100951.08;1639815;86;21059;-65
2022/08/09 04:45:45;;;;;;;4.10;1.40;;;;;;;19.52;74.74;100957.60;1683338;85;21051;-64
2022/08/09 04:48:16;;;;;;;1.72;1.57;;;;;;;19.54;74.44;100950.41;1663880;86;21063;-64
2022/08/09 04:50:47;;;;;;;5.00;1.87;;;;;;;19.57;74.60;100950.77;1683340;85;21043;-64
2022/08/09 04:53:18;;;;;;;2.60;1.70;;;;;;;19.63;74.25;100950.34;1664986;86;21030;-65
2022/08/09 04:55:49;;;;;;;2.30;1.80;;;;;;;19.66;73.95;100944.83;1679158;85;21065;-65
2022/08/09 04:58:20;;;;;;;2.40;1.70;;;;;;;19.70;73.81;100953.83;1654153;85;21054;-65
2022/08/09 05:00:50;;;;;;;4.05;1.75;;;;;;;19.76;73.46;100956.17;1664945;86;21046;-65
2022/08/09 05:03:22;;;;;;;1.62;1.50;;;;;;;19.78;73.40;100954.84;1686195;85;21041;-65
2022/08/09 05:05:54;;;;;;;2.42;1.40;;;;;;;19.84;73.25;100957.19;1704921;83;21036;-63
2022/08/09 05:08:26;;;;;;;2.00;1.50;;;;;;;19.88;73.06;100960.62;1707664;83;21105;-64
2022/08/09 05:10:58;;;;;;;4.22;2.08;;;;;;;19.94;72.81;100956.86;1720195;83;21012;-64
2022/08/09 05:13:30;;;;;;;2.62;1.45;;;;;;;20.01;72.42;100954.48;1704764;83;21046;-65
2022/08/09 05:16:01;;;;;;;3.75;1.70;;;;;;;20.07;72.10;100951.55;1715961;83;21022;-64
2022/08/09 05:18:32;;;;;;;5.37;1.70;;;;;;;20.17;71.60;100963.47;1695438;83;21074;-64
2022/08/09 05:21:03;;;;;;;2.45;1.60;;;;;;;20.23;71.37;100961.93;1716041;83;21090;-65
2022/08/09 05:23:34;;;;;;;2.05;1.20;;;;;;;20.34;71.08;100974.66;1716490;83;21066;-65
2022/08/09 05:26:06;;;;;;;4.62;1.77;;;;;;;20.39;70.48;100962.23;1714919;83;21074;-65
2022/08/09 05:28:38;;;;;;;1.60;1.50;;;;;;;20.44;70.28;100960.97;1699809;84;21420;-64
2022/08/09 05:31:08;;;;;;;1.50;1.40;;;;;;;20.50;70.24;100962.20;1715607;82;21042;-65
2022/08/09 05:33:38;;;;;;;1.50;1.40;;;;;;;20.59;70.28;100959.86;1732084;81;20998;-66
2022/08/09 05:36:10;;;;;;;2.10;1.65;;;;;;;20.66;69.81;100954.13;1754903;81;21128;-64
2022/08/09 05:38:41;;;;;;;3.77;1.42;;;;;;;20.73;69.53;100961.78;1744711;81;21010;-64
2022/08/09 05:41:12;;;;;;;3.37;1.70;;;;;;;20.77;69.39;100961.58;1736071;81;21050;-65
2022/08/09 05:43:43;;;;;;;3.42;1.60;;;;;;;20.78;69.26;100964.11;1749281;81;21001;-65
2022/08/09 05:46:14;;;;;;;2.22;1.40;;;;;;;20.83;69.21;100971.20;1761373;81;21033;-64
2022/08/09 05:48:43;;;;;;;4.58;2.00;;;;;;;20.88;68.68;100970.44;1737815;81;21021;-65
2022/08/09 05:51:15;;;;;;;2.98;1.47;;;;;;;20.90;68.66;100968.24;1749146;81;20999;-65
2022/08/09 05:53:47;;;;;;;2.87;1.90;;;;;;;20.94;68.77;100972.77;1728583;81;21025;-64
2022/08/09 05:56:19;;;;;;;4.42;2.37;;;;;;;21.00;68.42;100978.17;1748309;81;21057;-67
2022/08/09 05:58:55;;;;;;;3.60;1.87;;;;;;;21.04;68.19;100986.32;1728583;81;20962;-65
2022/08/09 06:01:27;;;;;;;1.85;1.60;;;;;;;20.99;68.09;100988.17;1749647;81;20989;-67
2022/08/09 06:03:58;;;;;;;6.85;1.70;;;;;;;20.97;68.16;100975.05;1734222;81;21023;-66
2022/08/09 06:06:31;;;;;;;4.22;1.30;;;;;;;20.97;68.42;100978.67;1722576;82;21149;-65
2022/08/09 06:09:03;;;;;;;3.05;1.40;;;;;;;20.98;67.77;100977.58;1722850;83;21049;-65
2022/08/09 06:11:34;;;;;;;2.35;1.20;;;;;;;21.02;68.02;100976.52;1721110;83;21528;-65
2022/08/09 06:14:07;;;;;;;3.02;1.60;;;;;;;21.06;67.24;100967.41;1721049;83;21513;-65
2022/08/09 06:16:36;;;;;;;2.92;1.40;;;;;;;21.06;67.66;100972.98;1721328;83;21090;-66
2022/08/09 06:19:08;;;;;;;9.35;1.77;;;;;;;21.10;67.51;100974.16;1722748;83;21027;-64
2022/08/09 06:21:38;;;;;;;2.40;1.40;;;;;;;21.19;66.42;100977.37;1723151;83;21093;-66
2022/08/09 06:24:09;;;;;;;2.72;1.40;;;;;;;21.25;66.36;100986.69;1721190;83;21716;-64
2022/08/09 06:26:40;;;;;;;2.20;1.30;;;;;;;21.33;65.96;100990.44;1721334;83;21078;-65
2022/08/09 06:29:11;;;;;;;1.95;1.40;;;;;;;21.38;65.22;100988.58;1721309;83;21042;-67
2022/08/09 06:31:43;;;;;;;5.75;1.42;;;;;;;21.50;64.69;100988.52;1723245;83;21066;-66
2022/08/09 06:34:15;;;;;;;3.02;1.27;;;;;;;21.75;64.24;100987.48;1721398;83;21525;-66
2022/08/09 06:36:46;;;;;;;2.42;1.20;;;;;;;22.07;63.40;100985.43;1721320;83;21042;-65
2022/08/09 06:39:17;;;;;;;3.02;1.50;;;;;;;22.38;61.75;100986.13;1724158;83;21100;-66
2022/08/09 06:41:49;;;;;;;4.65;1.27;;;;;;;22.72;61.01;100980.33;1723631;82;21097;-66
2022/08/09 06:44:20;;;;;;;1.90;1.20;;;;;;;23.15;59.24;100980.79;1722614;82;21007;-66
2022/08/09 06:46:50;;;;;;;2.70;1.30;;;;;;;23.51;57.77;100974.94;1721405;83;21085;-66
2022/08/09 06:49:22;;;;;;;2.87;1.25;;;;;;;23.82;56.31;100976.55;1721299;83;21050;-66
2022/08/09 06:51:53;;;;;;;3.12;1.27;;;;;;;24.16;55.55;100977.02;1721096;83;21148;-66
2022/08/09 06:54:24;;;;;;;4.10;1.27;;;;;;;24.32;54.83;100974.59;1721329;83;21575;-65
2022/08/09 06:56:54;;;;;;;1.50;1.12;;;;;;;24.33;54.26;100979.91;1723133;83;21066;-66
2022/08/09 06:59:24;;;;;;;1.52;1.15;;;;;;;24.35;53.58;100979.64;1723232;83;21042;-66
2022/08/09 07:01:56;;;;;;;1.92;1.15;;;;;;;24.33;53.12;100988.88;1721037;83;21085;-65
2022/08/09 07:04:28;;;;;;;3.90;1.27;;;;;;;24.33;52.71;100985.52;1723393;83;21160;-66
2022/08/09 07:06:57;;;;;;;2.87;1.30;;;;;;;24.30;52.58;100980.47;1747466;81;21049;-65
2022/08/09 07:09:29;;;;;;;1.87;1.20;;;;;;;24.34;53.09;100987.20;1742225;81;21065;-66
2022/08/09 07:12:02;;;;;;;3.42;1.50;;;;;;;24.42;52.72;100994.23;1760177;81;20989;-68
2022/08/09 07:14:33;;;;;;;5.78;2.27;;;;;;;24.52;51.96;100990.61;1746679;81;21480;-65
2022/08/09 07:17:03;;;;;;;3.30;1.15;;;;;;;24.53;51.79;101000.70;1759778;81;21040;-67
2022/08/09 07:19:35;;;;;;;2.72;1.10;;;;;;;24.56;51.12;101003.80;1753096;81;21028;-64
2022/08/09 07:22:05;;;;;;;1.80;1.00;;;;;;;24.63;50.43;101000.73;1763950;81;20973;-66
2022/08/09 07:24:36;;;;;;;1.27;1.17;;;;;;;24.69;49.65;100998.22;1742501;81;21069;-65
2022/08/09 07:27:10;;;;;;;2.20;0.98;;;;;;;24.71;50.12;100998.81;1748397;81;21044;-66
2022/08/09 07:29:41;;;;;;;2.15;1.10;;;;;;;24.77;50.50;100995.47;1741711;81;21002;-64
2022/08/09 07:32:11;;;;;;;1.65;1.17;;;;;;;24.78;50.51;100992.38;1748500;81;21390;-66
2022/08/09 07:34:41;;;;;;;13.72;2.05;;;;;;;24.73;50.28;100995.73;1762824;81;21057;-67
2022/08/09 07:37:13;;;;;;;6.47;1.40;;;;;;;24.65;50.40;101002.70;1738863;81;21043;-68
2022/08/09 07:39:44;;;;;;;2.17;1.47;;;;;;;24.53;49.86;100992.30;1744696;81;21023;-68
2022/08/09 07:42:15;;;;;;;4.08;1.50;;;;;;;24.37;50.38;100989.17;1743614;81;21033;-68
2022/08/09 07:44:45;;;;;;;7.47;1.40;;;;;;;24.29;51.01;100985.78;1752980;81;21034;-67
2022/08/09 07:47:17;;;;;;;4.28;1.10;;;;;;;24.27;51.04;100992.22;1734788;81;21053;-66
2022/08/09 07:49:48;;;;;;;1.65;1.17;;;;;;;24.20;51.52;100996.36;1746868;81;21097;-65
2022/08/09 07:52:24;;;;;;;1.20;1.10;;;;;;;24.15;51.95;100992.98;1748901;81;21021;-66
2022/08/09 07:54:53;;;;;;;1.82;1.10;;;;;;;24.10;52.37;101001.91;1747929;81;21030;-66
2022/08/09 07:57:22;;;;;;;3.40;1.20;;;;;;;23.99;51.12;100992.03;1750411;81;21545;-66
2022/08/09 07:59:54;;;;;;;1.22;1.10;;;;;;;23.94;51.53;100999.01;1748818;81;21483;-67
2022/08/09 08:02:24;;;;;;;2.08;1.00;;;;;;;23.91;50.51;100999.55;1746635;81;21503;-67
2022/08/09 08:04:55;;;;;;;2.70;1.00;;;;;;;23.90;49.31;101003.47;1744874;81;21479;-67
2022/08/09 08:07:24;;;;;;;4.12;1.10;;;;;;;23.86;49.05;101005.68;1750747;82;21156;-67
2022/08/09 08:09:56;;;;;;;2.05;1.12;;;;;;;23.92;48.65;101000.39;1705275;83;21116;-66
2022/08/09 08:12:27;;;;;;;2.05;0.95;;;;;;;24.07;48.81;100994.06;1670907;84;21102;-66
2022/08/09 08:14:58;;;;;;;0.88;0.80;;;;;;;24.24;48.91;100995.53;1706696;83;21542;-68
2022/08/09 08:17:27;;;;;;;1.72;1.00;;;;;;;24.32;48.14;101004.84;1675872;85;21555;-66
2022/08/09 08:19:58;;;;;;;2.72;1.00;;;;;;;24.40;48.48;101009.63;1713764;83;21145;-67
2022/08/09 08:22:28;;;;;;;2.22;1.12;;;;;;;24.40;48.82;101008.23;1703502;83;21030;-67
2022/08/09 08:24:58;;;;;;;3.17;1.10;;;;;;;24.37;48.02;101011.58;1691060;84;21046;-66
2022/08/09 08:27:27;;;;;;;1.72;1.10;;;;;;;24.32;48.64;101016.61;1696330;84;21070;-67
2022/08/09 08:29:59;;;;;;;4.05;1.60;;;;;;;24.31;48.20;101018.56;1696515;83;21122;-67
2022/08/09 08:32:32;;;;;;;4.33;2.40;;;;;;;24.33;48.62;101026.69;1696300;83;21074;-67
2022/08/09 08:35:01;;;;;;;1.80;1.15;;;;;;;24.28;47.50;101021.91;1696237;83;21491;-66
2022/08/09 08:37:33;;;;;;;3.60;1.65;;;;;;;24.20;47.42;101017.36;1694299;83;21665;-67
2022/08/09 08:40:06;;;;;;;2.87;1.37;;;;;;;24.13;48.06;101017.61;1690863;83;21082;-66
2022/08/09 08:42:36;;;;;;;4.03;1.20;;;;;;;24.10;48.36;101021.52;1696556;83;21097;-66
2022/08/09 08:45:08;;;;;;;4.80;1.00;;;;;;;24.07;47.83;101017.86;1697043;83;21042;-66
2022/08/09 08:47:43;;;;;;;1.30;1.12;;;;;;;24.01;47.10;101009.96;1696335;83;21423;-67
2022/08/09 08:50:15;;;;;;;4.30;1.32;;;;;;;23.89;48.00;101005.13;1696712;83;21516;-66
2022/08/09 08:52:47;;;;;;;2.87;1.22;;;;;;;23.85;47.63;101007.63;1685414;84;21098;-68
2022/08/09 08:55:18;;;;;;;4.03;1.00;;;;;;;23.82;48.04;101008.73;1696679;83;21363;-68
2022/08/09 08:57:49;;;;;;;1.22;0.90;;;;;;;23.85;47.47;101004.84;1690714;83;21443;-66
2022/08/09 09:00:20;;;;;;;1.60;1.00;;;;;;;23.91;47.30;101005.70;1695799;83;21125;-69
2022/08/09 09:02:52;;;;;;;2.98;2.02;;;;;;;23.96;46.36;101005.73;1685380;83;21118;-66
2022/08/09 09:05:23;;;;;;;2.33;1.15;;;;;;;23.99;46.07;100997.63;1671597;84;21542;-67
2022/08/09 09:07:54;;;;;;;2.62;1.10;;;;;;;24.03;45.30;100996.53;1707324;83;21054;-66
2022/08/09 09:10:26;;;;;;;2.30;1.05;;;;;;;24.05;45.19;100999.90;1717879;83;21081;-66
2022/08/09 09:12:56;;;;;;;2.55;1.32;;;;;;;24.01;45.70;100994.56;1717274;83;21054;-66
2022/08/09 09:15:25;;;;;;;3.27;1.30;;;;;;;23.95;46.57;100991.45;1691057;83;21054;-67
2022/08/09 09:17:57;;;;;;;1.60;1.00;;;;;;;23.93;47.07;100986.13;1709075;83;21054;-66
2022/08/09 09:20:27;;;;;;;3.17;1.40;;;;;;;23.92;47.10;100992.84;1729257;83;21050;-66
2022/08/09 09:22:58;;;;;;;1.95;1.00;;;;;;;;;;1666452;83;20995;-65
2022/08/09 09:25:42;;;;;;;2.52;1.10;;;;;;;23.94;47.49;100986.97;1726139;83;21478;-66
2022/08/09 09:28:13;;;;;;;2.30;0.88;;;;;;;23.94;47.48;100995.37;1697548;83;21488;-66
2022/08/09 09:30:53;;;;;;;4.00;1.20;;;;;;;23.84;47.77;100987.75;1719774;82;21054;-66
2022/08/09 09:33:34;;;;;;;3.47;1.20;;;;;;;23.80;48.52;100985.22;1708609;83;21030;-67
2022/08/09 09:36:07;;;;;;;3.67;2.10;;;;;;;23.81;48.72;100990.25;1722102;83;21081;-65
2022/08/09 09:38:51;;;;;;;4.40;1.22;;;;;;;23.88;48.74;100985.25;1715403;83;21430;-66
2022/08/09 09:41:27;;;;;;;3.55;1.17;;;;;;;23.92;48.59;100992.00;1715805;83;21451;-67
2022/08/09 09:44:00;;;;;;;1.55;1.25;;;;;;;23.91;48.47;100988.91;1723424;83;21011;-71
2022/08/09 09:46:38;;;;;;;2.72;1.10;;;;;;;23.85;48.39;100988.05;1720023;83;21042;-72
2022/08/09 09:49:11;;;;;;;2.58;1.27;;;;;;;23.81;49.14;100993.05;1729373;83;21057;-78
2022/08/09 09:51:40;;;;;;;2.33;1.12;;;;;;;23.80;49.33;100989.97;1713058;83;21030;-70
2022/08/09 09:54:16;;;;;;;2.10;1.05;;;;;;;23.82;48.29;100975.99;1729985;83;21058;-71
2022/08/09 09:56:48;;;;;;;1.70;1.02;;;;;;;23.84;48.01;100979.92;1721595;83;21153;-69
2022/08/09 09:59:26;;;;;;;1.55;1.12;;;;;;;23.82;48.06;100977.95;1720561;83;21106;-68
2022/08/09 10:02:00;;;;;;;1.62;1.10;;;;;;;23.84;48.43;100977.13;1679705;84;21090;-68
2022/08/09 10:04:31;;;;;;;2.40;1.30;;;;;;;23.87;48.25;100984.41;1722559;83;21042;-66
2022/08/09 10:07:00;;;;;;;4.53;1.15;;;;;;;23.89;47.95;100982.74;1659969;84;21066;-66
2022/08/09 10:09:54;;;;;;;2.87;1.40;;;;;;;23.92;47.92;100980.80;1649275;86;21541;-66
2022/08/09 10:12:35;;;;;;;2.85;1.07;;;;;;;23.90;47.39;100979.67;1672583;85;21069;-68
2022/08/09 10:15:16;;;;;;;3.55;1.20;;;;;;;23.90;47.05;100979.67;1657485;85;21114;-68
2022/08/09 10:17:52;;;;;;;2.70;1.20;;;;;;;23.86;46.36;100977.13;1658736;86;21098;-66
2022/08/09 10:20:25;;;;;;;2.27;1.20;;;;;;;23.85;46.85;100981.60;1664215;86;21062;-67
2022/08/09 10:22:59;;;;;;;4.97;1.30;;;;;;;23.88;46.59;100982.45;1690080;84;21117;-69
2022/08/09 10:25:29;;;;;;;6.22;3.50;;;;;;;23.90;46.34;100974.62;1668875;85;21088;-68
2022/08/09 10:28:00;;;;;;;1.75;1.30;;;;;;;23.90;46.44;100972.67;1667524;84;21073;-68
2022/08/09 10:30:30;;;;;;;5.10;1.37;;;;;;;23.93;46.28;100975.48;1645055;86;21496;-66
2022/08/09 10:33:03;;;;;;;5.03;1.82;;;;;;;23.92;46.15;100973.80;1693632;84;21141;-69
2022/08/09 10:35:34;;;;;;;2.65;1.50;;;;;;;23.92;46.60;100966.80;1631130;85;21063;-67
2022/08/09 10:38:05;;;;;;;2.98;1.10;;;;;;;23.95;46.38;100972.70;1691032;84;21098;-67
2022/08/09 10:40:36;;;;;;;3.85;1.30;;;;;;;23.96;46.05;100967.38;1655115;86;21066;-66
2022/08/09 10:43:07;;;;;;;3.08;1.85;;;;;;;23.95;46.39;100963.45;1667014;84;21035;-66
2022/08/09 10:45:39;;;;;;;3.33;1.57;;;;;;;23.95;46.20;100960.09;1682426;84;21086;-66
2022/08/09 10:48:35;;;;;;;3.55;1.37;;;;;;;23.94;45.66;100963.17;1663082;85;21093;-69
2022/08/09 10:51:31;;;;;;;2.20;1.10;;;;;;;23.93;45.90;100962.33;1679665;84;21114;-65
2022/08/09 10:54:09;;;;;;;2.47;1.20;;;;;;;23.97;45.36;100955.63;1687460;84;21011;-67
2022/08/09 10:56:41;;;;;;;1.47;1.07;;;;;;;23.96;45.17;100959.55;1687411;85;21109;-66
2022/08/09 10:59:29;;;;;;;3.20;1.20;;;;;;;23.95;44.78;100962.91;1676440;84;21085;-68
2022/08/09 11:02:01;;;;;;;3.08;1.90;;;;;;;23.98;44.81;100955.91;1665238;86;21093;-67
2022/08/09 11:04:34;;;;;;;1.77;0.93;;;;;;;23.98;43.75;100955.91;1685684;84;21065;-69
2022/08/09 11:07:08;;;;;;;2.70;1.12;;;;;;;23.97;43.81;100958.42;1703256;83;21101;-67
2022/08/09 11:09:46;;;;;;;1.70;1.12;;;;;;;23.91;43.32;100955.33;1704276;83;21101;-67
2022/08/09 11:12:25;;;;;;;1.70;1.02;;;;;;;23.83;43.18;100959.48;1681104;83;21470;-66
2022/08/09 11:15:01;;;;;;;3.85;1.15;;;;;;;23.79;43.70;100955.55;1718193;83;21078;-71
2022/08/09 11:17:35;;;;;;;6.17;1.40;;;;;;;23.80;43.40;100954.98;1711609;83;21062;-71
2022/08/09 11:20:09;;;;;;;3.45;1.20;;;;;;;23.80;43.52;100950.78;1763028;81;21041;-68
2022/08/09 11:22:49;;;;;;;3.00;0.93;;;;;;;23.79;43.06;100950.50;1754519;81;21058;-67
2022/08/09 11:25:21;;;;;;;6.30;1.57;;;;;;;23.77;42.30;100948.53;1754499;81;21001;-66
2022/08/09 11:27:56;;;;;;;2.98;1.40;;;;;;;23.71;42.70;100949.91;1731632;81;21033;-67
2022/08/09 11:30:31;;;;;;;1.92;1.12;;;;;;;23.69;42.60;100946.54;1749293;81;21559;-67
2022/08/09 11:33:19;;;;;;;2.77;1.05;;;;;;;23.61;42.80;100944.26;1761951;81;21005;-67
2022/08/09 11:35:56;;;;;;;3.22;1.40;;;;;;;23.57;42.85;100947.31;1760234;81;21424;-68
2022/08/09 11:38:34;;;;;;;2.27;1.30;;;;;;;23.51;43.89;100948.36;1746764;81;21496;-66
2022/08/09 11:41:13;;;;;;;2.95;1.40;;;;;;;23.51;44.22;100946.96;1744795;81;21105;-69
2022/08/09 11:43:48;;;;;;;7.30;1.60;;;;;;;23.52;44.60;100947.25;1738724;81;20974;-67
2022/08/09 11:46:17;;;;;;;1.82;1.00;;;;;;;23.53;45.00;100947.53;1755426;81;21511;-67
2022/08/09 11:48:56;;;;;;;3.30;1.12;;;;;;;23.55;44.62;100950.09;1755159;81;21628;-67
2022/08/09 11:51:26;;;;;;;;;;;;;;;23.56;44.33;100943.39;1736712;81;21034;-66
2022/08/09 11:54:15;;;;;;;1.80;1.00;;;;;;;23.57;44.53;100938.91;1753115;81;20153;-68